Serrana, Brazil
Current Conditions -  °F | °C
As of 8:00 PM on Thursday 23 Oct 2014 (Local Time) from SBRP Reporting Station
Few Clouds Few Clouds  
Wind Chill: 84°   Ceiling: Unl
Heat Index: 84°   Visibility: 6mi
Dew Point: 57°   Wind: 8mph
Humidity: 40%   Direction: 90°E
Pressure: 29.91"   Gusts: NA
Location:  21.21°S, 47.6°W
Report Text: SBRP 232200Z 09007KT 9999 FEW040 FEW045TCU 29/14 Q1013 RETS
Loading
Personal Weather Stations






























Interactive Weather Map
Tropical Storm Tracking
New forecast layout! Learn more

10-Day Weather Forecast

Advertisements
Track Severe Weather on mobile